Terminal Aerodrome Forecast
Issued by NWS Jackson, MS

Home | Current Version | Previous Version | Text Only | Print | Product List | Glossary On
Versions: 1 2 3 4 5 6 7 8 9 10 11 12 13 14 15
000
FTUS44 KJAN 051542 AAB
TAFJAN
TAF AMD
KJAN 051542Z 0516/0612 00000KT 3SM RA BR BKN004 BKN040 OVC050
     FM052300 11010KT 2SM BR VCTS BKN003 OVC010CB
     FM060700 20010KT 4SM BR VCSH OVC003=

USA.gov is the U.S. government's official web portal to all federal, state and local government web resources and services.